sensor_id;sensor_type;location;lat;lon;timestamp;P1;durP1;ratioP1;P2;durP2;ratioP2
18499;SDS011;9379;52.134;11.576;2023-02-01T00:00:54;5.00;;;3.35;;
18499;SDS011;9379;52.134;11.576;2023-02-01T00:03:21;1.85;;;1.55;;
18499;SDS011;9379;52.134;11.576;2023-02-01T00:05:54;6.53;;;3.97;;
18499;SDS011;9379;52.134;11.576;2023-02-01T00:08:22;8.90;;;3.72;;
18499;SDS011;9379;52.134;11.576;2023-02-01T00:10:48;10.63;;;3.85;;
18499;SDS011;9379;52.134;11.576;2023-02-01T00:13:24;11.70;;;4.40;;
18499;SDS011;9379;52.134;11.576;2023-02-01T00:15:51;9.23;;;2.08;;
18499;SDS011;9379;52.134;11.576;2023-02-01T00:18:18;9.10;;;3.15;;
18499;SDS011;9379;52.134;11.576;2023-02-01T00:20:46;6.75;;;2.10;;
18499;SDS011;9379;52.134;11.576;2023-02-01T00:23:13;8.73;;;3.33;;
18499;SDS011;9379;52.134;11.576;2023-02-01T00:25:39;6.18;;;2.88;;
18499;SDS011;9379;52.134;11.576;2023-02-01T00:28:06;7.13;;;3.35;;
18499;SDS011;9379;52.134;11.576;2023-02-01T00:30:34;13.50;;;4.70;;
18499;SDS011;9379;52.134;11.576;2023-02-01T00:33:01;9.48;;;1.77;;
18499;SDS011;9379;52.134;11.576;2023-02-01T00:35:28;10.27;;;4.72;;
18499;SDS011;9379;52.134;11.576;2023-02-01T00:37:54;3.97;;;1.80;;
18499;SDS011;9379;52.134;11.576;2023-02-01T00:40:23;5.80;;;2.28;;
18499;SDS011;9379;52.134;11.576;2023-02-01T00:42:50;6.50;;;3.30;;
18499;SDS011;9379;52.134;11.576;2023-02-01T00:45:17;8.65;;;2.15;;
18499;SDS011;9379;52.134;11.576;2023-02-01T00:47:45;6.95;;;3.53;;
18499;SDS011;9379;52.134;11.576;2023-02-01T00:50:12;5.25;;;3.00;;
18499;SDS011;9379;52.134;11.576;2023-02-01T00:52:39;14.57;;;5.63;;
18499;SDS011;9379;52.134;11.576;2023-02-01T00:55:06;9.82;;;2.35;;
18499;SDS011;9379;52.134;11.576;2023-02-01T00:57:33;6.68;;;3.55;;
18499;SDS011;9379;52.134;11.576;2023-02-01T00:59:59;22.45;;;4.47;;
18499;SDS011;9379;52.134;11.576;2023-02-01T01:02:26;12.25;;;4.18;;
18499;SDS011;9379;52.134;11.576;2023-02-01T01:04:54;6.55;;;3.33;;
18499;SDS011;9379;52.134;11.576;2023-02-01T01:07:21;11.55;;;3.08;;
18499;SDS011;9379;52.134;11.576;2023-02-01T01:09:48;10.75;;;3.17;;
18499;SDS011;9379;52.134;11.576;2023-02-01T01:12:15;5.80;;;2.63;;
18499;SDS011;9379;52.134;11.576;2023-02-01T01:14:41;8.85;;;4.13;;
18499;SDS011;9379;52.134;11.576;2023-02-01T01:17:08;7.20;;;3.33;;
18499;SDS011;9379;52.134;11.576;2023-02-01T01:19:35;9.40;;;3.20;;
18499;SDS011;9379;52.134;11.576;2023-02-01T01:22:03;10.30;;;2.92;;
18499;SDS011;9379;52.134;11.576;2023-02-01T01:24:30;5.55;;;2.95;;
18499;SDS011;9379;52.134;11.576;2023-02-01T01:26:56;6.75;;;2.72;;
18499;SDS011;9379;52.134;11.576;2023-02-01T01:29:23;4.88;;;2.00;;
18499;SDS011;9379;52.134;11.576;2023-02-01T01:31:50;11.88;;;3.35;;
18499;SDS011;9379;52.134;11.576;2023-02-01T01:34:17;13.48;;;5.75;;
18499;SDS011;9379;52.134;11.576;2023-02-01T01:36:43;8.60;;;2.53;;
18499;SDS011;9379;52.134;11.576;2023-02-01T01:39:12;10.82;;;3.95;;
18499;SDS011;9379;52.134;11.576;2023-02-01T01:41:38;3.03;;;1.50;;
18499;SDS011;9379;52.134;11.576;2023-02-01T01:44:06;12.68;;;4.65;;
18499;SDS011;9379;52.134;11.576;2023-02-01T01:46:53;4.97;;;2.75;;
18499;SDS011;9379;52.134;11.576;2023-02-01T01:49:20;5.35;;;3.00;;
18499;SDS011;9379;52.134;11.576;2023-02-01T01:51:51;7.60;;;3.13;;
18499;SDS011;9379;52.134;11.576;2023-02-01T01:54:23;6.20;;;3.55;;
18499;SDS011;9379;52.134;11.576;2023-02-01T01:56:55;8.07;;;3.90;;
18499;SDS011;9379;52.134;11.576;2023-02-01T01:59:25;8.00;;;3.00;;
18499;SDS011;9379;52.134;11.576;2023-02-01T02:01:52;5.07;;;2.80;;
18499;SDS011;9379;52.134;11.576;2023-02-01T02:04:19;10.60;;;2.58;;
18499;SDS011;9379;52.134;11.576;2023-02-01T02:06:47;9.73;;;3.30;;
18499;SDS011;9379;52.134;11.576;2023-02-01T02:09:20;6.22;;;3.25;;
18499;SDS011;9379;52.134;11.576;2023-02-01T02:11:49;8.50;;;3.85;;
18499;SDS011;9379;52.134;11.576;2023-02-01T02:14:16;10.88;;;2.83;;
18499;SDS011;9379;52.134;11.576;2023-02-01T02:16:52;14.27;;;4.18;;
18499;SDS011;9379;52.134;11.576;2023-02-01T02:19:54;6.82;;;3.13;;
18499;SDS011;9379;52.134;11.576;2023-02-01T02:25:37;5.32;;;2.40;;
18499;SDS011;9379;52.134;11.576;2023-02-01T02:28:24;14.38;;;2.35;;
18499;SDS011;9379;52.134;11.576;2023-02-01T02:34:00;10.02;;;3.17;;
18499;SDS011;9379;52.134;11.576;2023-02-01T02:36:38;5.93;;;2.83;;
18499;SDS011;9379;52.134;11.576;2023-02-01T02:39:16;12.40;;;5.22;;
18499;SDS011;9379;52.134;11.576;2023-02-01T02:41:54;8.65;;;3.78;;
18499;SDS011;9379;52.134;11.576;2023-02-01T02:44:45;12.95;;;4.32;;
18499;SDS011;9379;52.134;11.576;2023-02-01T02:47:34;15.43;;;4.47;;
18499;SDS011;9379;52.134;11.576;2023-02-01T02:50:11;6.00;;;4.30;;
18499;SDS011;9379;52.134;11.576;2023-02-01T02:52:59;12.63;;;2.92;;
18499;SDS011;9379;52.134;11.576;2023-02-01T02:55:47;11.52;;;3.60;;
18499;SDS011;9379;52.134;11.576;2023-02-01T02:58:17;3.92;;;2.78;;
18499;SDS011;9379;52.134;11.576;2023-02-01T03:01:03;9.35;;;2.55;;
18499;SDS011;9379;52.134;11.576;2023-02-01T03:03:48;6.63;;;3.30;;
18499;SDS011;9379;52.134;11.576;2023-02-01T03:06:35;11.73;;;4.50;;
18499;SDS011;9379;52.134;11.576;2023-02-01T03:09:04;10.50;;;3.92;;
18499;SDS011;9379;52.134;11.576;2023-02-01T03:11:36;7.82;;;2.40;;
18499;SDS011;9379;52.134;11.576;2023-02-01T03:14:22;11.48;;;4.03;;
18499;SDS011;9379;52.134;11.576;2023-02-01T03:16:57;9.90;;;4.57;;
18499;SDS011;9379;52.134;11.576;2023-02-01T03:19:27;6.40;;;4.07;;
18499;SDS011;9379;52.134;11.576;2023-02-01T03:22:01;10.90;;;3.97;;
18499;SDS011;9379;52.134;11.576;2023-02-01T03:24:32;4.50;;;2.80;;
18499;SDS011;9379;52.134;11.576;2023-02-01T03:27:05;4.85;;;3.05;;
18499;SDS011;9379;52.134;11.576;2023-02-01T03:29:38;8.68;;;3.95;;
18499;SDS011;9379;52.134;11.576;2023-02-01T03:32:10;11.70;;;4.65;;
18499;SDS011;9379;52.134;11.576;2023-02-01T03:34:37;5.82;;;3.50;;
18499;SDS011;9379;52.134;11.576;2023-02-01T03:37:05;16.38;;;5.45;;
18499;SDS011;9379;52.134;11.576;2023-02-01T03:39:36;11.50;;;3.08;;
18499;SDS011;9379;52.134;11.576;2023-02-01T03:42:09;7.93;;;2.33;;
18499;SDS011;9379;52.134;11.576;2023-02-01T03:44:41;2.75;;;2.33;;
18499;SDS011;9379;52.134;11.576;2023-02-01T03:47:16;9.48;;;3.67;;
18499;SDS011;9379;52.134;11.576;2023-02-01T03:49:47;6.35;;;3.28;;
18499;SDS011;9379;52.134;11.576;2023-02-01T03:52:20;14.70;;;3.78;;
18499;SDS011;9379;52.134;11.576;2023-02-01T03:54:51;11.38;;;4.22;;
18499;SDS011;9379;52.134;11.576;2023-02-01T03:57:20;5.78;;;2.80;;
18499;SDS011;9379;52.134;11.576;2023-02-01T03:59:50;9.65;;;3.97;;
18499;SDS011;9379;52.134;11.576;2023-02-01T04:02:17;6.05;;;3.15;;
18499;SDS011;9379;52.134;11.576;2023-02-01T04:04:44;5.82;;;2.47;;
18499;SDS011;9379;52.134;11.576;2023-02-01T04:07:11;7.35;;;2.00;;
18499;SDS011;9379;52.134;11.576;2023-02-01T04:09:39;7.82;;;3.60;;
18499;SDS011;9379;52.134;11.576;2023-02-01T04:12:06;14.18;;;3.42;;
18499;SDS011;9379;52.134;11.576;2023-02-01T04:14:33;7.30;;;2.92;;
18499;SDS011;9379;52.134;11.576;2023-02-01T04:16:59;6.63;;;2.38;;
18499;SDS011;9379;52.134;11.576;2023-02-01T04:19:26;5.85;;;2.88;;
18499;SDS011;9379;52.134;11.576;2023-02-01T04:21:55;9.82;;;4.13;;
18499;SDS011;9379;52.134;11.576;2023-02-01T04:24:22;11.82;;;6.45;;
18499;SDS011;9379;52.134;11.576;2023-02-01T04:26:50;14.50;;;10.25;;
18499;SDS011;9379;52.134;11.576;2023-02-01T04:29:17;14.30;;;4.75;;
18499;SDS011;9379;52.134;11.576;2023-02-01T04:31:44;6.88;;;3.80;;
18499;SDS011;9379;52.134;11.576;2023-02-01T04:34:11;4.78;;;3.70;;
18499;SDS011;9379;52.134;11.576;2023-02-01T04:36:38;6.72;;;3.42;;
18499;SDS011;9379;52.134;11.576;2023-02-01T04:39:04;12.10;;;7.38;;
18499;SDS011;9379;52.134;11.576;2023-02-01T04:41:31;12.77;;;6.50;;
18499;SDS011;9379;52.134;11.576;2023-02-01T04:43:59;8.38;;;6.15;;
18499;SDS011;9379;52.134;11.576;2023-02-01T04:46:26;9.55;;;5.13;;
18499;SDS011;9379;52.134;11.576;2023-02-01T04:48:53;6.35;;;4.57;;
18499;SDS011;9379;52.134;11.576;2023-02-01T04:51:19;8.85;;;3.90;;
18499;SDS011;9379;52.134;11.576;2023-02-01T04:53:47;13.75;;;4.05;;
18499;SDS011;9379;52.134;11.576;2023-02-01T04:56:13;12.80;;;5.15;;
18499;SDS011;9379;52.134;11.576;2023-02-01T04:58:40;6.82;;;3.60;;
18499;SDS011;9379;52.134;11.576;2023-02-01T05:01:08;5.07;;;3.05;;
18499;SDS011;9379;52.134;11.576;2023-02-01T05:03:35;7.05;;;3.47;;
18499;SDS011;9379;52.134;11.576;2023-02-01T05:06:02;16.05;;;3.67;;
18499;SDS011;9379;52.134;11.576;2023-02-01T05:08:30;12.77;;;5.57;;
18499;SDS011;9379;52.134;11.576;2023-02-01T05:10:57;31.30;;;15.30;;
18499;SDS011;9379;52.134;11.576;2023-02-01T05:13:27;28.60;;;19.15;;
18499;SDS011;9379;52.134;11.576;2023-02-01T05:16:09;26.92;;;20.00;;
18499;SDS011;9379;52.134;11.576;2023-02-01T05:18:36;18.27;;;11.52;;
18499;SDS011;9379;52.134;11.576;2023-02-01T05:21:03;11.75;;;6.97;;
18499;SDS011;9379;52.134;11.576;2023-02-01T05:23:30;6.75;;;4.45;;
18499;SDS011;9379;52.134;11.576;2023-02-01T05:25:59;7.47;;;3.47;;
18499;SDS011;9379;52.134;11.576;2023-02-01T05:28:27;7.78;;;3.67;;
18499;SDS011;9379;52.134;11.576;2023-02-01T05:30:54;13.43;;;4.43;;
18499;SDS011;9379;52.134;11.576;2023-02-01T05:33:22;7.80;;;3.83;;
18499;SDS011;9379;52.134;11.576;2023-02-01T05:35:49;5.20;;;3.13;;
18499;SDS011;9379;52.134;11.576;2023-02-01T05:38:16;6.43;;;3.03;;
18499;SDS011;9379;52.134;11.576;2023-02-01T05:40:43;3.58;;;2.47;;
18499;SDS011;9379;52.134;11.576;2023-02-01T05:43:14;4.40;;;2.38;;
18499;SDS011;9379;52.134;11.576;2023-02-01T05:45:41;4.53;;;2.55;;
18499;SDS011;9379;52.134;11.576;2023-02-01T05:48:08;6.35;;;3.17;;
18499;SDS011;9379;52.134;11.576;2023-02-01T05:50:36;9.07;;;2.72;;
18499;SDS011;9379;52.134;11.576;2023-02-01T05:53:03;6.90;;;3.25;;
18499;SDS011;9379;52.134;11.576;2023-02-01T05:55:30;8.40;;;4.00;;
18499;SDS011;9379;52.134;11.576;2023-02-01T05:57:56;8.35;;;3.13;;
18499;SDS011;9379;52.134;11.576;2023-02-01T06:00:23;6.90;;;3.58;;
18499;SDS011;9379;52.134;11.576;2023-02-01T06:02:50;9.13;;;3.17;;
18499;SDS011;9379;52.134;11.576;2023-02-01T06:05:17;18.95;;;5.72;;
18499;SDS011;9379;52.134;11.576;2023-02-01T06:07:45;3.53;;;2.78;;
18499;SDS011;9379;52.134;11.576;2023-02-01T06:10:12;4.18;;;2.92;;
18499;SDS011;9379;52.134;11.576;2023-02-01T06:12:39;4.22;;;2.47;;
18499;SDS011;9379;52.134;11.576;2023-02-01T06:15:06;4.10;;;2.60;;
18499;SDS011;9379;52.134;11.576;2023-02-01T06:17:34;8.30;;;2.97;;
18499;SDS011;9379;52.134;11.576;2023-02-01T06:20:01;6.85;;;3.50;;
18499;SDS011;9379;52.134;11.576;2023-02-01T06:22:28;8.38;;;3.03;;
18499;SDS011;9379;52.134;11.576;2023-02-01T06:24:56;2.65;;;2.40;;
18499;SDS011;9379;52.134;11.576;2023-02-01T06:27:24;9.98;;;3.50;;
18499;SDS011;9379;52.134;11.576;2023-02-01T06:29:50;9.43;;;4.05;;
18499;SDS011;9379;52.134;11.576;2023-02-01T06:32:18;7.63;;;3.05;;
18499;SDS011;9379;52.134;11.576;2023-02-01T06:34:45;6.40;;;3.55;;
18499;SDS011;9379;52.134;11.576;2023-02-01T06:37:11;10.13;;;3.60;;
18499;SDS011;9379;52.134;11.576;2023-02-01T06:39:39;8.68;;;2.97;;
18499;SDS011;9379;52.134;11.576;2023-02-01T06:42:07;9.75;;;2.70;;
18499;SDS011;9379;52.134;11.576;2023-02-01T06:44:33;7.55;;;3.40;;
18499;SDS011;9379;52.134;11.576;2023-02-01T06:47:00;7.75;;;4.00;;
18499;SDS011;9379;52.134;11.576;2023-02-01T06:49:27;8.48;;;3.30;;
18499;SDS011;9379;52.134;11.576;2023-02-01T06:51:54;6.53;;;4.10;;
18499;SDS011;9379;52.134;11.576;2023-02-01T06:54:21;6.72;;;4.35;;
18499;SDS011;9379;52.134;11.576;2023-02-01T06:56:47;11.05;;;3.42;;
18499;SDS011;9379;52.134;11.576;2023-02-01T06:59:16;4.65;;;4.20;;
18499;SDS011;9379;52.134;11.576;2023-02-01T07:01:42;10.07;;;4.00;;
18499;SDS011;9379;52.134;11.576;2023-02-01T07:04:10;8.40;;;4.72;;
18499;SDS011;9379;52.134;11.576;2023-02-01T07:06:37;10.95;;;5.43;;
18499;SDS011;9379;52.134;11.576;2023-02-01T07:09:04;9.10;;;3.20;;
18499;SDS011;9379;52.134;11.576;2023-02-01T07:11:31;8.40;;;4.28;;
18499;SDS011;9379;52.134;11.576;2023-02-01T07:13:58;12.13;;;5.65;;
18499;SDS011;9379;52.134;11.576;2023-02-01T07:16:26;5.78;;;4.60;;
18499;SDS011;9379;52.134;11.576;2023-02-01T07:18:54;6.65;;;3.17;;
18499;SDS011;9379;52.134;11.576;2023-02-01T07:21:20;9.07;;;4.82;;
18499;SDS011;9379;52.134;11.576;2023-02-01T07:23:47;2.78;;;2.10;;
18499;SDS011;9379;52.134;11.576;2023-02-01T07:26:14;13.52;;;3.22;;
18499;SDS011;9379;52.134;11.576;2023-02-01T07:28:41;7.38;;;3.22;;
18499;SDS011;9379;52.134;11.576;2023-02-01T07:31:09;11.75;;;3.80;;
18499;SDS011;9379;52.134;11.576;2023-02-01T07:33:38;2.97;;;1.95;;
18499;SDS011;9379;52.134;11.576;2023-02-01T07:36:06;4.55;;;3.45;;
18499;SDS011;9379;52.134;11.576;2023-02-01T07:38:33;4.60;;;3.08;;
18499;SDS011;9379;52.134;11.576;2023-02-01T07:41:01;11.48;;;2.95;;
18499;SDS011;9379;52.134;11.576;2023-02-01T07:43:29;6.20;;;3.42;;
18499;SDS011;9379;52.134;11.576;2023-02-01T07:45:56;8.07;;;3.28;;
18499;SDS011;9379;52.134;11.576;2023-02-01T07:48:23;2.55;;;2.35;;
18499;SDS011;9379;52.134;11.576;2023-02-01T07:50:57;4.93;;;3.05;;
18499;SDS011;9379;52.134;11.576;2023-02-01T07:53:25;4.15;;;3.05;;
18499;SDS011;9379;52.134;11.576;2023-02-01T07:55:51;2.78;;;2.53;;
18499;SDS011;9379;52.134;11.576;2023-02-01T07:58:18;4.25;;;2.58;;
18499;SDS011;9379;52.134;11.576;2023-02-01T08:00:45;8.95;;;4.03;;
18499;SDS011;9379;52.134;11.576;2023-02-01T08:03:29;5.53;;;2.85;;
18499;SDS011;9379;52.134;11.576;2023-02-01T08:05:57;4.10;;;2.78;;
18499;SDS011;9379;52.134;11.576;2023-02-01T08:08:24;4.45;;;2.83;;
18499;SDS011;9379;52.134;11.576;2023-02-01T08:10:51;12.40;;;3.58;;
18499;SDS011;9379;52.134;11.576;2023-02-01T08:13:19;3.05;;;2.75;;
18499;SDS011;9379;52.134;11.576;2023-02-01T08:15:46;5.18;;;2.55;;
18499;SDS011;9379;52.134;11.576;2023-02-01T08:18:13;3.95;;;2.63;;
18499;SDS011;9379;52.134;11.576;2023-02-01T08:20:41;3.45;;;2.72;;
18499;SDS011;9379;52.134;11.576;2023-02-01T08:23:13;3.90;;;2.55;;
18499;SDS011;9379;52.134;11.576;2023-02-01T08:25:40;4.47;;;2.45;;
18499;SDS011;9379;52.134;11.576;2023-02-01T08:28:07;4.72;;;3.08;;
18499;SDS011;9379;52.134;11.576;2023-02-01T08:30:34;6.30;;;3.35;;
18499;SDS011;9379;52.134;11.576;2023-02-01T08:33:02;4.18;;;2.78;;
18499;SDS011;9379;52.134;11.576;2023-02-01T08:35:31;2.75;;;2.13;;
18499;SDS011;9379;52.134;11.576;2023-02-01T08:37:57;4.70;;;2.42;;
18499;SDS011;9379;52.134;11.576;2023-02-01T08:40:26;3.55;;;2.80;;
18499;SDS011;9379;52.134;11.576;2023-02-01T08:42:53;10.90;;;3.47;;
18499;SDS011;9379;52.134;11.576;2023-02-01T08:45:20;5.45;;;2.63;;
18499;SDS011;9379;52.134;11.576;2023-02-01T08:47:48;2.88;;;2.63;;
18499;SDS011;9379;52.134;11.576;2023-02-01T08:50:16;3.13;;;2.80;;
18499;SDS011;9379;52.134;11.576;2023-02-01T08:52:43;6.30;;;2.95;;
18499;SDS011;9379;52.134;11.576;2023-02-01T08:55:10;6.78;;;4.00;;
18499;SDS011;9379;52.134;11.576;2023-02-01T08:57:38;3.80;;;2.58;;
18499;SDS011;9379;52.134;11.576;2023-02-01T09:00:06;8.13;;;2.30;;
18499;SDS011;9379;52.134;11.576;2023-02-01T09:02:35;4.00;;;2.40;;
18499;SDS011;9379;52.134;11.576;2023-02-01T09:05:02;2.03;;;1.83;;
18499;SDS011;9379;52.134;11.576;2023-02-01T09:07:30;4.95;;;1.80;;
18499;SDS011;9379;52.134;11.576;2023-02-01T09:09:57;2.58;;;2.38;;
18499;SDS011;9379;52.134;11.576;2023-02-01T09:12:26;3.50;;;3.20;;
18499;SDS011;9379;52.134;11.576;2023-02-01T09:14:54;3.95;;;2.13;;
18499;SDS011;9379;52.134;11.576;2023-02-01T09:17:21;2.25;;;2.13;;
18499;SDS011;9379;52.134;11.576;2023-02-01T09:19:48;5.68;;;2.67;;
18499;SDS011;9379;52.134;11.576;2023-02-01T09:22:14;4.63;;;2.53;;
18499;SDS011;9379;52.134;11.576;2023-02-01T09:24:42;7.75;;;2.92;;
18499;SDS011;9379;52.134;11.576;2023-02-01T09:27:08;4.80;;;1.98;;
18499;SDS011;9379;52.134;11.576;2023-02-01T09:29:35;6.32;;;1.85;;
18499;SDS011;9379;52.134;11.576;2023-02-01T09:32:04;7.47;;;3.03;;
18499;SDS011;9379;52.134;11.576;2023-02-01T09:34:31;2.85;;;1.38;;
18499;SDS011;9379;52.134;11.576;2023-02-01T09:36:58;5.70;;;2.13;;
18499;SDS011;9379;52.134;11.576;2023-02-01T09:39:25;4.25;;;2.53;;
18499;SDS011;9379;52.134;11.576;2023-02-01T09:41:55;3.92;;;2.13;;
18499;SDS011;9379;52.134;11.576;2023-02-01T09:44:42;1.88;;;1.52;;
18499;SDS011;9379;52.134;11.576;2023-02-01T09:47:28;3.35;;;3.05;;
18499;SDS011;9379;52.134;11.576;2023-02-01T09:49:56;4.68;;;2.03;;
18499;SDS011;9379;52.134;11.576;2023-02-01T09:52:29;2.05;;;1.70;;
18499;SDS011;9379;52.134;11.576;2023-02-01T09:55:01;5.20;;;2.53;;
18499;SDS011;9379;52.134;11.576;2023-02-01T09:57:40;2.25;;;1.63;;
18499;SDS011;9379;52.134;11.576;2023-02-01T10:00:15;3.67;;;1.70;;
18499;SDS011;9379;52.134;11.576;2023-02-01T10:02:47;1.85;;;1.52;;
18499;SDS011;9379;52.134;11.576;2023-02-01T10:05:17;3.22;;;2.47;;
18499;SDS011;9379;52.134;11.576;2023-02-01T10:07:55;2.42;;;2.22;;
18499;SDS011;9379;52.134;11.576;2023-02-01T10:10:30;2.60;;;1.60;;
18499;SDS011;9379;52.134;11.576;2023-02-01T10:13:07;3.30;;;1.63;;
18499;SDS011;9379;52.134;11.576;2023-02-01T10:15:56;2.42;;;2.13;;
18499;SDS011;9379;52.134;11.576;2023-02-01T10:18:39;2.90;;;2.13;;
18499;SDS011;9379;52.134;11.576;2023-02-01T10:21:17;4.63;;;2.85;;
18499;SDS011;9379;52.134;11.576;2023-02-01T10:26:47;2.45;;;1.88;;
18499;SDS011;9379;52.134;11.576;2023-02-01T10:29:20;2.90;;;1.60;;
18499;SDS011;9379;52.134;11.576;2023-02-01T10:31:51;2.45;;;2.25;;
18499;SDS011;9379;52.134;11.576;2023-02-01T10:34:21;5.93;;;2.28;;
18499;SDS011;9379;52.134;11.576;2023-02-01T10:36:55;6.57;;;2.63;;
18499;SDS011;9379;52.134;11.576;2023-02-01T10:39:26;3.55;;;2.03;;
18499;SDS011;9379;52.134;11.576;2023-02-01T10:41:53;4.72;;;1.88;;
18499;SDS011;9379;52.134;11.576;2023-02-01T10:44:23;6.68;;;2.42;;
18499;SDS011;9379;52.134;11.576;2023-02-01T10:46:52;4.63;;;2.08;;
18499;SDS011;9379;52.134;11.576;2023-02-01T10:49:22;4.78;;;2.38;;
18499;SDS011;9379;52.134;11.576;2023-02-01T10:51:58;7.63;;;2.65;;
18499;SDS011;9379;52.134;11.576;2023-02-01T10:54:32;3.78;;;1.88;;
18499;SDS011;9379;52.134;11.576;2023-02-01T10:57:03;5.10;;;2.38;;
18499;SDS011;9379;52.134;11.576;2023-02-01T10:59:34;5.40;;;4.35;;
18499;SDS011;9379;52.134;11.576;2023-02-01T11:02:02;4.82;;;2.65;;
18499;SDS011;9379;52.134;11.576;2023-02-01T11:04:43;5.28;;;2.65;;
18499;SDS011;9379;52.134;11.576;2023-02-01T11:07:13;8.55;;;4.35;;
18499;SDS011;9379;52.134;11.576;2023-02-01T11:09:47;12.38;;;3.47;;
18499;SDS011;9379;52.134;11.576;2023-02-01T11:12:27;10.93;;;4.60;;
18499;SDS011;9379;52.134;11.576;2023-02-01T11:15:11;4.80;;;2.28;;
18499;SDS011;9379;52.134;11.576;2023-02-01T11:17:42;9.02;;;3.03;;
18499;SDS011;9379;52.134;11.576;2023-02-01T11:20:14;6.32;;;2.85;;
18499;SDS011;9379;52.134;11.576;2023-02-01T11:22:46;3.08;;;1.95;;
18499;SDS011;9379;52.134;11.576;2023-02-01T11:25:14;9.43;;;4.47;;
18499;SDS011;9379;52.134;11.576;2023-02-01T11:27:43;4.68;;;1.95;;
18499;SDS011;9379;52.134;11.576;2023-02-01T11:30:13;10.90;;;3.40;;
18499;SDS011;9379;52.134;11.576;2023-02-01T11:32:42;8.40;;;3.00;;
18499;SDS011;9379;52.134;11.576;2023-02-01T11:35:11;15.95;;;4.07;;
18499;SDS011;9379;52.134;11.576;2023-02-01T11:37:44;8.63;;;3.58;;
18499;SDS011;9379;52.134;11.576;2023-02-01T11:40:27;6.82;;;3.38;;
18499;SDS011;9379;52.134;11.576;2023-02-01T11:42:56;3.25;;;2.30;;
18499;SDS011;9379;52.134;11.576;2023-02-01T11:45:25;7.25;;;2.22;;
18499;SDS011;9379;52.134;11.576;2023-02-01T11:47:54;2.58;;;2.38;;
18499;SDS011;9379;52.134;11.576;2023-02-01T11:50:27;7.40;;;3.63;;
18499;SDS011;9379;52.134;11.576;2023-02-01T11:53:04;3.17;;;2.75;;
18499;SDS011;9379;52.134;11.576;2023-02-01T11:55:55;4.60;;;2.88;;
18499;SDS011;9379;52.134;11.576;2023-02-01T11:58:40;5.88;;;3.53;;
18499;SDS011;9379;52.134;11.576;2023-02-01T12:01:21;5.20;;;3.33;;
18499;SDS011;9379;52.134;11.576;2023-02-01T12:04:04;2.17;;;1.98;;
18499;SDS011;9379;52.134;11.576;2023-02-01T12:06:54;7.07;;;3.13;;
18499;SDS011;9379;52.134;11.576;2023-02-01T12:09:31;3.72;;;2.58;;
18499;SDS011;9379;52.134;11.576;2023-02-01T12:12:10;9.45;;;2.53;;
18499;SDS011;9379;52.134;11.576;2023-02-01T12:14:47;11.38;;;4.65;;
18499;SDS011;9379;52.134;11.576;2023-02-01T12:20:28;4.75;;;3.05;;
18499;SDS011;9379;52.134;11.576;2023-02-01T12:23:23;2.40;;;1.92;;
18499;SDS011;9379;52.134;11.576;2023-02-01T12:26:06;5.32;;;2.28;;
18499;SDS011;9379;52.134;11.576;2023-02-01T12:28:55;6.53;;;2.85;;
18499;SDS011;9379;52.134;11.576;2023-02-01T12:31:41;9.68;;;2.70;;
18499;SDS011;9379;52.134;11.576;2023-02-01T12:37:13;4.63;;;2.42;;
18499;SDS011;9379;52.134;11.576;2023-02-01T12:39:52;3.92;;;2.22;;
18499;SDS011;9379;52.134;11.576;2023-02-01T12:42:30;3.55;;;2.47;;
18499;SDS011;9379;52.134;11.576;2023-02-01T12:45:03;12.10;;;2.72;;
18499;SDS011;9379;52.134;11.576;2023-02-01T12:47:39;11.88;;;3.58;;
18499;SDS011;9379;52.134;11.576;2023-02-01T12:50:12;3.95;;;2.53;;
18499;SDS011;9379;52.134;11.576;2023-02-01T12:52:47;4.97;;;2.97;;
18499;SDS011;9379;52.134;11.576;2023-02-01T12:55:19;2.45;;;2.25;;
18499;SDS011;9379;52.134;11.576;2023-02-01T12:57:49;3.92;;;2.42;;
18499;SDS011;9379;52.134;11.576;2023-02-01T13:00:22;5.45;;;2.75;;
18499;SDS011;9379;52.134;11.576;2023-02-01T13:02:59;2.95;;;2.70;;
18499;SDS011;9379;52.134;11.576;2023-02-01T13:05:33;4.28;;;3.35;;
18499;SDS011;9379;52.134;11.576;2023-02-01T13:08:11;5.18;;;2.85;;
18499;SDS011;9379;52.134;11.576;2023-02-01T13:10:45;5.00;;;1.67;;
18499;SDS011;9379;52.134;11.576;2023-02-01T13:13:26;6.50;;;3.13;;
18499;SDS011;9379;52.134;11.576;2023-02-01T13:15:59;4.80;;;2.33;;
18499;SDS011;9379;52.134;11.576;2023-02-01T13:18:35;7.85;;;3.15;;
18499;SDS011;9379;52.134;11.576;2023-02-01T13:21:05;14.77;;;2.53;;
18499;SDS011;9379;52.134;11.576;2023-02-01T13:23:37;9.68;;;4.18;;
18499;SDS011;9379;52.134;11.576;2023-02-01T13:26:07;3.58;;;2.83;;
18499;SDS011;9379;52.134;11.576;2023-02-01T13:28:40;4.45;;;2.03;;
18499;SDS011;9379;52.134;11.576;2023-02-01T13:31:18;5.95;;;2.85;;
18499;SDS011;9379;52.134;11.576;2023-02-01T13:34:25;4.50;;;1.63;;
18499;SDS011;9379;52.134;11.576;2023-02-01T13:37:21;5.13;;;3.03;;
18499;SDS011;9379;52.134;11.576;2023-02-01T13:39:59;15.82;;;4.60;;
18499;SDS011;9379;52.134;11.576;2023-02-01T13:42:46;4.93;;;2.10;;
18499;SDS011;9379;52.134;11.576;2023-02-01T13:45:17;9.98;;;2.97;;
18499;SDS011;9379;52.134;11.576;2023-02-01T13:47:47;4.50;;;2.97;;
18499;SDS011;9379;52.134;11.576;2023-02-01T13:50:21;3.38;;;2.78;;
18499;SDS011;9379;52.134;11.576;2023-02-01T13:52:52;5.45;;;2.70;;
18499;SDS011;9379;52.134;11.576;2023-02-01T13:55:31;6.38;;;2.65;;
18499;SDS011;9379;52.134;11.576;2023-02-01T13:58:02;4.63;;;2.78;;
18499;SDS011;9379;52.134;11.576;2023-02-01T14:00:45;2.85;;;2.55;;
18499;SDS011;9379;52.134;11.576;2023-02-01T14:03:14;10.77;;;4.13;;
18499;SDS011;9379;52.134;11.576;2023-02-01T14:06:02;2.60;;;2.38;;
18499;SDS011;9379;52.134;11.576;2023-02-01T14:11:39;3.17;;;2.95;;
18499;SDS011;9379;52.134;11.576;2023-02-01T14:23:20;8.00;;;3.42;;
18499;SDS011;9379;52.134;11.576;2023-02-01T14:28:32;4.38;;;3.85;;
18499;SDS011;9379;52.134;11.576;2023-02-01T14:31:13;7.53;;;4.63;;
18499;SDS011;9379;52.134;11.576;2023-02-01T14:33:45;6.18;;;5.47;;
18499;SDS011;9379;52.134;11.576;2023-02-01T14:36:13;10.07;;;3.67;;
18499;SDS011;9379;52.134;11.576;2023-02-01T14:38:46;5.43;;;4.05;;
18499;SDS011;9379;52.134;11.576;2023-02-01T14:41:23;3.72;;;3.42;;
18499;SDS011;9379;52.134;11.576;2023-02-01T14:44:14;5.93;;;4.47;;
18499;SDS011;9379;52.134;11.576;2023-02-01T14:47:06;2.80;;;2.60;;
18499;SDS011;9379;52.134;11.576;2023-02-01T14:53:14;1.88;;;1.50;;
18499;SDS011;9379;52.134;11.576;2023-02-01T14:55:46;3.30;;;1.38;;
18499;SDS011;9379;52.134;11.576;2023-02-01T14:58:18;4.57;;;2.50;;
18499;SDS011;9379;52.134;11.576;2023-02-01T15:00:51;3.28;;;1.40;;
18499;SDS011;9379;52.134;11.576;2023-02-01T15:03:34;1.60;;;1.50;;
18499;SDS011;9379;52.134;11.576;2023-02-01T15:06:14;1.08;;;1.08;;
18499;SDS011;9379;52.134;11.576;2023-02-01T15:08:51;1.80;;;1.17;;
18499;SDS011;9379;52.134;11.576;2023-02-01T15:11:20;4.75;;;1.58;;
18499;SDS011;9379;52.134;11.576;2023-02-01T15:13:48;2.10;;;1.48;;
18499;SDS011;9379;52.134;11.576;2023-02-01T15:16:16;1.20;;;1.10;;
18499;SDS011;9379;52.134;11.576;2023-02-01T15:18:43;1.23;;;1.13;;
18499;SDS011;9379;52.134;11.576;2023-02-01T15:21:16;6.35;;;1.08;;
18499;SDS011;9379;52.134;11.576;2023-02-01T15:23:44;1.50;;;1.00;;
18499;SDS011;9379;52.134;11.576;2023-02-01T15:28:56;3.42;;;1.80;;
18499;SDS011;9379;52.134;11.576;2023-02-01T15:31:33;1.95;;;1.65;;
18499;SDS011;9379;52.134;11.576;2023-02-01T15:34:01;2.33;;;2.10;;
18499;SDS011;9379;52.134;11.576;2023-02-01T15:36:30;1.65;;;1.55;;
18499;SDS011;9379;52.134;11.576;2023-02-01T15:39:14;1.88;;;1.77;;
18499;SDS011;9379;52.134;11.576;2023-02-01T15:41:48;0.85;;;0.85;;
18499;SDS011;9379;52.134;11.576;2023-02-01T15:44:19;3.90;;;1.15;;
18499;SDS011;9379;52.134;11.576;2023-02-01T15:46:49;1.02;;;1.02;;